createdAt,value
2019-02-06T00:02:37.054Z,196.00
2019-02-06T00:07:38.840Z,183.93
2019-02-06T00:12:40.538Z,201.90
2019-02-06T00:17:42.228Z,221.20
2019-02-06T00:22:44.021Z,200.73
2019-02-06T00:27:46.131Z,198.43
2019-02-06T00:32:47.939Z,132.00
2019-02-06T00:37:49.740Z,160.77
2019-02-06T00:42:51.603Z,186.67
2019-02-06T00:47:53.445Z,168.47
2019-02-06T00:52:55.452Z,142.10
2019-02-06T00:57:57.659Z,157.73
2019-02-06T01:02:59.562Z,101.63
2019-02-06T01:08:01.283Z,129.90
2019-02-06T01:13:03.168Z,191.00
2019-02-06T01:18:05.507Z,167.43
2019-02-06T01:23:07.178Z,115.20
2019-02-06T01:28:08.876Z,156.83
2019-02-06T01:33:11.086Z,151.60
2019-02-06T01:38:12.992Z,136.47
2019-02-06T01:43:14.787Z,97.23
2019-02-06T01:48:16.658Z,98.17
2019-02-06T01:53:18.494Z,76.67
2019-02-06T01:58:20.675Z,99.43
2019-02-06T02:03:22.402Z,66.63
2019-02-06T02:08:24.815Z,83.20
2019-02-06T02:13:26.479Z,91.20
2019-02-06T02:18:28.415Z,88.60
2019-02-06T02:23:30.089Z,95.10
2019-02-06T02:28:32.118Z,81.00
2019-02-06T02:33:33.918Z,81.00
2019-02-06T02:38:35.872Z,65.20
2019-02-06T02:43:37.741Z,101.03
2019-02-06T02:48:40.035Z,89.03
2019-02-06T02:53:41.834Z,72.53
2019-02-06T02:58:44.042Z,73.33
2019-02-06T03:03:47.582Z,79.73
2019-02-06T03:08:49.389Z,71.57
2019-02-06T03:13:51.487Z,67.10
2019-02-06T03:18:53.287Z,78.90
2019-02-06T03:23:54.985Z,76.73
2019-02-06T03:28:56.687Z,71.90
2019-02-06T03:33:58.499Z,40.20
2019-02-06T03:39:00.287Z,28.17
2019-02-06T03:44:02.089Z,97.70
2019-02-06T03:49:03.888Z,78.40
2019-02-06T03:54:05.684Z,58.43
2019-02-06T03:59:08.739Z,59.43
2019-02-06T04:04:10.503Z,72.93
2019-02-06T04:09:12.303Z,74.20
2019-02-06T04:14:13.969Z,66.40
2019-02-06T04:19:15.696Z,89.73
2019-02-06T04:24:17.466Z,71.77
2019-02-06T04:29:19.869Z,79.80
2019-02-06T04:34:21.584Z,63.23
2019-02-06T04:39:23.435Z,94.33
2019-02-06T04:44:25.215Z,81.20
2019-02-06T04:49:26.998Z,95.07
2019-02-06T04:54:28.756Z,87.40
2019-02-06T04:59:31.057Z,86.03
2019-02-06T05:04:32.812Z,87.63
2019-02-06T05:09:34.828Z,97.07
2019-02-06T05:14:36.596Z,98.27
2019-02-06T05:19:38.290Z,80.60
2019-02-06T05:24:40.400Z,76.77
2019-02-06T05:29:42.096Z,97.13
2019-02-06T05:34:43.883Z,79.50
2019-02-06T05:39:45.582Z,35.50
2019-02-06T05:44:47.372Z,83.90
2019-02-06T05:49:49.057Z,52.17
2019-02-06T05:54:50.756Z,75.83
2019-02-06T05:59:52.540Z,89.07
2019-02-06T06:04:54.526Z,107.10
2019-02-06T06:09:56.320Z,106.47
2019-02-06T06:14:58.010Z,101.70
2019-02-06T06:19:59.701Z,114.87
2019-02-06T06:25:01.984Z,96.73
2019-02-06T06:30:07.546Z,84.10
2019-02-06T06:35:11.265Z,77.30
2019-02-06T06:40:16.713Z,92.53
2019-02-06T06:45:21.314Z,111.97
2019-02-06T06:50:24.369Z,115.00
2019-02-06T06:55:26.458Z,114.70
2019-02-06T07:00:30.537Z,97.13
2019-02-06T07:05:32.258Z,104.30
2019-02-06T07:10:34.402Z,113.13
2019-02-06T07:15:36.023Z,122.60
2019-02-06T07:20:37.696Z,78.13
2019-02-06T07:25:39.384Z,74.87
2019-02-06T07:30:41.047Z,113.60
2019-02-06T07:35:42.846Z,113.90
2019-02-06T07:40:44.653Z,113.17
2019-02-06T07:45:46.452Z,82.57
2019-02-06T07:50:49.792Z,70.53
2019-02-06T07:55:51.598Z,67.43
2019-02-06T08:00:53.378Z,85.30
2019-02-06T08:05:55.522Z,68.73
2019-02-06T08:10:57.453Z,98.73
2019-02-06T08:15:59.190Z,87.47
2019-02-06T08:21:00.800Z,112.20
2019-02-06T08:26:02.507Z,76.37
2019-02-06T08:31:04.109Z,93.70
2019-02-06T08:36:05.825Z,87.83
2019-02-06T08:41:12.963Z,68.30
2019-02-06T08:46:15.996Z,81.10
2019-02-06T08:51:19.650Z,85.47
2019-02-06T08:56:21.645Z,68.70
2019-02-06T09:01:23.318Z,51.17
2019-02-06T09:06:25.417Z,76.40
2019-02-06T09:11:27.605Z,76.00
2019-02-06T09:16:29.285Z,64.00
2019-02-06T09:21:31.128Z,98.90
2019-02-06T09:26:36.050Z,91.43
2019-02-06T09:31:36.520Z,67.80
2019-02-06T09:36:38.279Z,72.10
2019-02-06T09:41:40.396Z,76.23
2019-02-06T09:46:42.609Z,55.13
2019-02-06T09:51:44.923Z,61.57
2019-02-06T09:56:46.748Z,73.00
2019-02-06T10:01:49.863Z,61.97
2019-02-06T10:06:54.332Z,64.13
2019-02-06T10:11:55.827Z,51.13
2019-02-06T10:16:58.026Z,51.03
2019-02-06T10:21:59.844Z,25.87
2019-02-06T10:27:01.519Z,43.03
2019-02-06T10:32:03.507Z,44.90
2019-02-06T10:37:05.220Z,40.23
2019-02-06T10:42:06.968Z,42.13
2019-02-06T10:47:08.733Z,47.77
2019-02-06T10:52:10.478Z,36.30
2019-02-06T10:57:12.284Z,39.17
2019-02-06T11:02:14.722Z,32.20
2019-02-06T11:07:16.973Z,39.10
2019-02-06T11:12:19.023Z,28.97
2019-02-06T11:17:20.658Z,36.90
2019-02-06T11:22:22.369Z,35.67
2019-02-06T11:27:24.571Z,34.03
2019-02-06T11:32:26.208Z,38.00
2019-02-06T11:37:27.898Z,45.97
2019-02-06T11:42:29.585Z,36.83
2019-02-06T11:47:31.239Z,17.87
2019-02-06T11:52:32.965Z,26.53
2019-02-06T11:57:34.729Z,21.90
2019-02-06T12:02:37.640Z,29.23
2019-02-06T12:07:40.966Z,28.33
2019-02-06T12:12:43.037Z,25.03
2019-02-06T12:17:44.712Z,20.73
2019-02-06T12:22:48.374Z,24.20
2019-02-06T12:27:52.015Z,24.93
2019-02-06T12:32:54.208Z,29.30
2019-02-06T12:37:56.616Z,20.43
2019-02-06T12:42:58.677Z,24.63
2019-02-06T12:48:00.974Z,20.40
2019-02-06T12:53:03.385Z,13.13
2019-02-06T12:58:06.519Z,17.57
2019-02-06T13:03:13.812Z,13.63
2019-02-06T13:08:17.376Z,23.17
2019-02-06T13:13:19.815Z,27.50
2019-02-06T13:18:24.212Z,17.47
2019-02-06T13:23:25.466Z,15.60
2019-02-06T13:28:27.595Z,8.93
2019-02-06T13:33:29.488Z,10.40
2019-02-06T13:38:31.719Z,13.13
2019-02-06T13:43:33.499Z,11.27
2019-02-06T13:48:35.630Z,11.53
2019-02-06T13:53:37.818Z,8.73
2019-02-06T13:58:39.629Z,9.00
2019-02-06T14:03:41.640Z,9.97
2019-02-06T14:08:43.556Z,5.57
2019-02-06T14:13:46.689Z,11.63
2019-02-06T14:18:48.363Z,10.90
2019-02-06T14:23:54.569Z,7.93
2019-02-06T14:29:17.572Z,10.97
2019-02-06T14:34:29.321Z,6.93
2019-02-06T14:39:46.770Z,7.53
2019-02-06T14:45:01.608Z,8.20
2019-02-06T14:50:15.939Z,8.63
2019-02-06T14:55:47.502Z,9.80
2019-02-06T15:01:19.997Z,7.27
2019-02-06T15:06:34.658Z,14.77
2019-02-06T15:11:43.231Z,14.77
2019-02-06T15:17:00.897Z,25.67
2019-02-06T15:22:18.836Z,24.30
2019-02-06T15:27:36.691Z,29.73
2019-02-06T15:32:59.408Z,30.00
2019-02-06T15:38:07.569Z,32.33
2019-02-06T15:43:13.247Z,54.43
2019-02-06T15:48:38.903Z,78.67
2019-02-06T15:53:59.959Z,44.73
2019-02-06T15:59:08.553Z,81.80
2019-02-06T16:04:31.223Z,93.47
2019-02-06T16:09:49.278Z,170.87
2019-02-06T16:14:55.396Z,185.00
2019-02-06T16:20:13.576Z,248.53
2019-02-06T16:25:27.849Z,187.47
2019-02-06T16:30:48.219Z,138.40
2019-02-06T16:36:02.371Z,101.97
2019-02-06T16:41:16.528Z,96.40
2019-02-06T16:46:52.129Z,65.03
2019-02-06T16:52:00.474Z,86.23
2019-02-06T16:57:06.268Z,87.80
2019-02-06T17:02:44.069Z,66.73
2019-02-06T17:07:52.673Z,104.10
2019-02-06T17:13:01.093Z,94.80
2019-02-06T17:18:27.765Z,121.37
2019-02-06T17:23:39.627Z,121.10
2019-02-06T17:29:03.321Z,143.43
2019-02-06T17:34:08.662Z,137.00
2019-02-06T17:39:32.633Z,70.30
2019-02-06T17:44:42.542Z,129.67
2019-02-06T17:50:07.268Z,108.37
2019-02-06T17:55:27.696Z,167.93
2019-02-06T18:00:43.267Z,111.83
2019-02-06T18:05:45.788Z,122.17
2019-02-06T18:10:48.590Z,115.97
2019-02-06T18:15:54.888Z,137.70
2019-02-06T18:20:57.007Z,118.30
2019-02-06T18:25:59.468Z,73.27
2019-02-06T18:31:01.932Z,90.47
2019-02-06T18:36:04.393Z,83.13
2019-02-06T18:41:06.186Z,73.73
2019-02-06T18:46:11.876Z,102.40
2019-02-06T18:51:16.516Z,67.87
2019-02-06T18:56:20.047Z,88.13
2019-02-06T19:01:27.969Z,92.67
2019-02-06T19:06:30.725Z,67.67
2019-02-06T19:11:34.536Z,53.87
2019-02-06T19:16:39.917Z,72.30
2019-02-06T19:21:42.394Z,68.40
2019-02-06T19:26:46.152Z,51.00
2019-02-06T19:31:53.754Z,74.83
2019-02-06T19:36:56.813Z,55.23
2019-02-06T19:41:58.661Z,52.33
2019-02-06T19:47:01.086Z,31.10
2019-02-06T19:52:04.908Z,28.87
2019-02-06T19:57:10.734Z,38.90
2019-02-06T20:02:15.183Z,48.37
2019-02-06T20:12:36.118Z,61.80
2019-02-06T20:17:38.274Z,26.23
2019-02-06T20:22:40.272Z,57.67
2019-02-06T20:27:43.391Z,59.70
2019-02-06T20:32:46.527Z,90.33
2019-02-06T20:37:50.471Z,57.90
2019-02-06T20:42:54.383Z,61.10
2019-02-06T20:47:57.016Z,65.10
2019-02-06T20:53:02.177Z,35.70
2019-02-06T20:58:07.313Z,70.47
2019-02-06T21:03:11.460Z,61.80
2019-02-06T21:08:13.924Z,92.27
2019-02-06T21:13:18.900Z,50.47
2019-02-06T21:18:20.252Z,64.27
2019-02-06T21:23:22.233Z,71.07
2019-02-06T21:28:24.175Z,47.80
2019-02-06T21:33:26.089Z,26.63
2019-02-06T21:38:30.213Z,25.43
2019-02-06T21:43:32.404Z,78.10
2019-02-06T21:48:36.968Z,34.37
2019-02-06T21:53:40.771Z,30.67
2019-02-06T21:58:42.889Z,49.87
2019-02-06T22:03:47.402Z,51.17
2019-02-06T22:08:49.205Z,60.10
2019-02-06T22:13:55.288Z,64.30
2019-02-06T22:18:55.116Z,42.10
2019-02-06T22:23:56.818Z,52.27
2019-02-06T22:28:58.621Z,47.53
2019-02-06T22:34:01.444Z,43.30
2019-02-06T22:39:07.140Z,51.53
2019-02-06T22:44:08.826Z,63.40
2019-02-06T22:49:11.050Z,56.60
2019-02-06T22:54:12.852Z,49.30
2019-02-06T22:59:14.675Z,74.13
2019-02-06T23:04:17.068Z,70.97
2019-02-06T23:09:18.870Z,80.27
2019-02-06T23:14:21.181Z,76.57
2019-02-06T23:19:23.087Z,94.10
2019-02-06T23:24:24.902Z,64.07
2019-02-06T23:29:26.580Z,72.80
2019-02-06T23:34:28.283Z,93.07
2019-02-06T23:39:30.082Z,76.90
2019-02-06T23:44:32.194Z,41.43
2019-02-06T23:49:33.998Z,36.30
2019-02-06T23:54:35.808Z,28.60
2019-02-06T23:59:37.495Z,33.60
